Time;durP1;ratioP1;P1;durP2;ratioP2;P2;SDS_P1;SDS_P2;PMS_P1;PMS_P2;Temp;Humidity;BMP_temperature;BMP_pressure;BME280_temperature;BME280_humidity;BME280_pressure;Samples;Min_cycle;Max_cycle;Signal;HPM_P1;HPM_P2
2023/01/04 15:59:22;;;;;;;17.45;9.48;;;;;;;8.84;55.71;99854.38;2400199;79;31394;-80
2023/01/04 16:07:34;;;;;;;15.75;9.63;;;;;;;9.11;55.51;99857.59;2127075;91;26551;-75
2023/01/04 16:16:08;;;;;;;;;;;;;;;;;;;;;
2023/01/04 16:20:16;;;;;;;12.90;8.73;;;;;;;9.64;55.09;99817.42;1974794;98;25851;-81
2023/01/04 16:23:37;;;;;;;10.35;7.83;;;;;;;9.76;54.92;99805.08;1961529;99;25966;-76
2023/01/04 16:27:37;;;;;;;;;;;;;;;;;;;;;
2023/01/04 16:30:59;;;;;;;12.65;8.53;;;;;;;9.94;54.70;99787.58;1907894;102;25851;-75
2023/01/04 16:34:52;;;;;;;9.75;7.00;;;;;;;10.12;54.50;99789.59;1917979;99;25861;-76
2023/01/04 16:38:32;;;;;;;10.03;7.37;;;;;;;10.22;54.31;99769.78;1880463;103;25758;-75
2023/01/04 16:42:49;;;;;;;8.15;6.17;;;;;;;10.32;54.16;99773.88;1876570;104;25909;-75
2023/01/04 16:46:37;;;;;;;7.95;5.85;;;;;;;10.38;54.08;99775.27;1859493;104;26018;-76
2023/01/04 16:50:14;;;;;;;8.83;6.22;;;;;;;10.45;53.99;99754.52;1866474;101;26027;-86
2023/01/04 16:54:38;;;;;;;7.75;5.75;;;;;;;10.49;53.94;99740.67;1923918;100;26144;-82
2023/01/04 16:58:46;;;;;;;;;;;;;;;;;;;;;
2023/01/04 17:06:50;;;;;;;8.10;5.50;;;;;;;10.54;54.03;99711.66;2028012;94;25798;-76
2023/01/04 17:10:47;;;;;;;6.70;4.70;;;;;;;10.58;54.01;99710.83;2006281;96;25856;-79
2023/01/04 17:15:07;;;;;;;10.43;5.42;;;;;;;10.58;54.02;99692.59;1997800;96;25797;-86
2023/01/04 17:18:56;;;;;;;6.58;4.42;;;;;;;10.58;54.02;99692.59;1905996;102;26240;-75
2023/01/04 17:22:39;;;;;;;8.55;4.95;;;;;;;10.59;54.17;99685.20;1887035;104;25919;-82
2023/01/04 17:26:46;;;;;;;;;;;;;;;;;;;;;
2023/01/04 17:30:14;;;;;;;;;;;;;;;;;;;;;
2023/01/04 17:33:35;;;;;;;5.15;4.17;;;;;;;10.51;54.42;99639.95;1875758;103;25883;-78
2023/01/04 17:37:26;;;;;;;5.67;4.42;;;;;;;10.55;55.01;99617.84;1901248;101;25797;-78
2023/01/04 17:41:23;;;;;;;6.50;4.15;;;;;;;10.50;54.66;99625.17;1905064;102;25827;-76
2023/01/04 17:44:57;;;;;;;8.55;4.70;;;;;;;10.50;54.66;99625.17;1917236;101;25882;-81
2023/01/04 17:52:41;;;;;;;5.95;4.70;;;;;;;10.50;55.10;99599.12;1887293;100;25869;-76
2023/01/04 18:00:21;;;;;;;5.53;4.72;;;;;;;10.52;55.22;99565.67;1914621;100;25865;-76
2023/01/04 18:04:00;;;;;;;5.50;4.58;;;;;;;10.52;55.22;99565.67;1918647;100;25902;-79
2023/01/04 18:11:36;;;;;;;5.95;4.60;;;;;;;10.53;55.44;99547.91;1844140;104;26222;-82
2023/01/04 18:15:08;;;;;;;5.33;4.62;;;;;;;10.56;55.51;99542.72;1837642;105;26421;-76
2023/01/04 18:18:43;;;;;;;5.75;3.75;;;;;;;10.56;55.59;99535.31;1840332;104;26032;-75
2023/01/04 18:22:23;;;;;;;;;;;;;;;;;;;;;
2023/01/04 18:26:09;;;;;;;4.50;4.10;;;;;;;10.53;55.82;99509.21;1810658;106;25942;-75
2023/01/04 18:29:41;;;;;;;7.95;4.87;;;;;;;10.49;55.98;99505.70;1822371;106;27166;-76
2023/01/04 18:33:20;;;;;;;5.10;4.55;;;;;;;10.50;56.10;99498.36;1848070;104;25958;-75
2023/01/04 18:40:48;;;;;;;4.55;3.37;;;;;;;10.29;56.34;99452.13;1771404;109;25964;-75
2023/01/04 18:44:37;;;;;;;4.90;4.40;;;;;;;10.29;56.34;99452.13;1769415;108;25971;-76
2023/01/04 18:48:53;;;;;;;5.15;4.10;;;;;;;10.44;56.71;99468.75;1834012;105;25919;-76
2023/01/04 18:53:29;;;;;;;;;;;;;;;;;;;;;
2023/01/04 18:57:16;;;;;;;4.40;3.83;;;;;;;10.44;57.02;99445.31;1765028;108;26142;-79
2023/01/04 19:01:04;;;;;;;4.62;3.50;;;;;;;10.22;57.13;99409.88;1802893;106;26723;-78
2023/01/04 19:04:38;;;;;;;3.70;3.17;;;;;;;10.22;57.13;99409.88;1792994;107;25861;-79
2023/01/04 19:08:00;;;;;;;3.92;3.33;;;;;;;10.35;57.59;99431.75;1785271;107;25837;-81
2023/01/04 19:11:50;;;;;;;;;;;;;;;;;;;;;
2023/01/04 19:15:30;;;;;;;;;;;;;;;;;;;;;
2023/01/04 19:19:15;;;;;;;3.10;2.80;;;;;;;10.40;58.13;99402.72;1842241;103;26171;-76
2023/01/04 19:22:44;;;;;;;4.25;3.67;;;;;;;10.40;57.91;99405.33;1876481;103;25977;-76
2023/01/04 19:26:21;;;;;;;3.70;3.40;;;;;;;10.26;58.00;99373.95;1893369;103;26092;-76
2023/01/04 19:30:33;;;;;;;5.75;3.42;;;;;;;10.32;58.14;99396.12;1888960;102;26018;-77
2023/01/04 19:34:12;;;;;;;4.47;2.95;;;;;;;10.41;58.32;99377.10;1905978;103;26044;-75
2023/01/04 19:41:59;;;;;;;4.30;3.10;;;;;;;10.96;57.49;99364.88;1901218;102;25751;-76
2023/01/04 19:45:50;;;;;;;;;;;;;;;;;;;;;
2023/01/04 19:49:28;;;;;;;4.67;2.92;;;;;;;11.01;57.47;99351.45;1902986;100;25881;-76
2023/01/04 19:53:10;;;;;;;4.33;2.77;;;;;;;11.03;57.00;99333.61;1890472;102;25823;-76
2023/01/04 20:01:12;;;;;;;;;;;;;;;;;;;;;
2023/01/04 20:04:58;;;;;;;3.85;3.20;;;;;;;11.32;56.77;99352.45;1799200;106;25993;-85
2023/01/04 20:08:37;;;;;;;3.95;3.52;;;;;;;11.39;56.61;99341.17;1805507;105;26078;-77
2023/01/04 20:16:51;;;;;;;3.60;3.30;;;;;;;11.47;56.22;99317.70;1905243;102;26466;-79
2023/01/04 20:20:46;;;;;;;;;;;;;;;;;;;;;
2023/01/04 20:24:53;;;;;;;;;;;;;;;;;;;;;
2023/01/04 20:28:44;;;;;;;;;;;;;;;;;;;;;
2023/01/04 20:36:39;;;;;;;;;;;;;;;;;;;;;
2023/01/04 20:40:21;;;;;;;;;;;;;;;;;;;;;
2023/01/04 20:43:56;;;;;;;3.00;2.77;;;;;;;11.63;56.05;99302.95;1878319;103;25869;-75
2023/01/04 20:47:34;;;;;;;4.72;2.72;;;;;;;11.65;56.03;99294.70;1928582;99;25776;-74
2023/01/04 20:52:08;;;;;;;;;;;;;;;;;;;;;
2023/01/04 20:55:09;;;;;;;3.17;2.87;;;;;;;11.66;56.11;99295.13;1906848;100;26462;-76
2023/01/04 20:58:47;;;;;;;3.27;2.98;;;;;;;11.70;56.08;99286.43;1968290;98;25397;-84
2023/01/04 21:06:30;;;;;;;4.00;3.52;;;;;;;11.80;55.92;99286.88;2067680;93;25793;-74
2023/01/04 21:14:30;;;;;;;;;;;;;;;;;;;;;
2023/01/04 21:26:12;;;;;;;2.98;2.55;;;;;;;11.85;56.00;99239.48;1940001;99;25972;-77
2023/01/04 21:29:40;;;;;;;3.17;2.62;;;;;;;11.89;56.02;99243.84;1904235;100;25987;-75
2023/01/04 21:33:13;;;;;;;4.70;2.87;;;;;;;11.94;55.95;99229.46;1904312;102;25819;-76
2023/01/04 21:37:20;;;;;;;;;;;;;;;;;;;;;
2023/01/04 21:41:18;;;;;;;;;;;;;;;;;;;;;
2023/01/04 21:46:01;;;;;;;;;;;;;;;;;;;;;
2023/01/04 21:49:42;;;;;;;;;;;;;;;;;;;;;
2023/01/04 21:53:18;;;;;;;3.10;2.80;;;;;;;12.12;55.73;99175.91;1852171;103;27114;-90
2023/01/04 21:56:49;;;;;;;3.00;2.45;;;;;;;12.15;55.68;99180.23;1769306;107;25801;-86
